Terminal Aerodrome Forecast
Issued by NWS

Current Version | Previous Version | Text Only | Print | Product List | Glossary On
Versions: 1 2 3 4 5 6 7 8 9 10 11 12 13 14 15 16 17 18 19 20 21 22 23 24 25 26 27 28 29 30 31 32 33 34 35 36 37 38
000
FTAK31 PAFA 261128
TAFAQT
TAF
PAQT 261128Z 2612/2712 01006KT 1SM BR SCT004 OVC015
      TEMPO 2612/2616 3SM BR BKN004
     FM261800 05007KT P6SM BKN015
     FM270800 06007KT 2SM BR OVC005=

USA.gov is the U.S. government's official web portal to all federal, state and local government web resources and services.